sensor_id;sensor_type;location;lat;lon;timestamp;temperature;humidity
50989;DHT22;37008;52.210;21.112;2023-03-16T00:00:03;0.80;95.80
50989;DHT22;37008;52.210;21.112;2023-03-16T00:02:33;0.80;95.80
50989;DHT22;37008;52.210;21.112;2023-03-16T00:04:59;0.70;95.90
50989;DHT22;37008;52.210;21.112;2023-03-16T00:07:25;0.60;96.10
50989;DHT22;37008;52.210;21.112;2023-03-16T00:09:51;0.60;96.70
50989;DHT22;37008;52.210;21.112;2023-03-16T00:12:18;0.60;97.20
50989;DHT22;37008;52.210;21.112;2023-03-16T00:14:46;0.60;97.00
50989;DHT22;37008;52.210;21.112;2023-03-16T00:17:13;0.50;97.20
50989;DHT22;37008;52.210;21.112;2023-03-16T00:19:53;0.50;97.60
50989;DHT22;37008;52.210;21.112;2023-03-16T00:22:21;0.40;97.80
50989;DHT22;37008;52.210;21.112;2023-03-16T00:24:47;0.40;98.30
50989;DHT22;37008;52.210;21.112;2023-03-16T00:27:13;0.30;98.70
50989;DHT22;37008;52.210;21.112;2023-03-16T00:29:43;0.30;99.00
50989;DHT22;37008;52.210;21.112;2023-03-16T00:32:26;0.30;99.30
50989;DHT22;37008;52.210;21.112;2023-03-16T00:34:52;0.40;99.30
50989;DHT22;37008;52.210;21.112;2023-03-16T00:37:19;0.30;99.30
50989;DHT22;37008;52.210;21.112;2023-03-16T00:39:46;0.40;99.70
50989;DHT22;37008;52.210;21.112;2023-03-16T00:42:13;0.40;99.70
50989;DHT22;37008;52.210;21.112;2023-03-16T00:44:39;0.40;99.90
50989;DHT22;37008;52.210;21.112;2023-03-16T00:47:06;0.40;99.90
50989;DHT22;37008;52.210;21.112;2023-03-16T00:49:33;0.30;99.90
50989;DHT22;37008;52.210;21.112;2023-03-16T00:52:00;0.30;99.90
50989;DHT22;37008;52.210;21.112;2023-03-16T00:54:26;0.30;99.90
50989;DHT22;37008;52.210;21.112;2023-03-16T00:56:52;0.30;99.90
50989;DHT22;37008;52.210;21.112;2023-03-16T00:59:18;0.40;99.90
50989;DHT22;37008;52.210;21.112;2023-03-16T01:01:45;0.20;99.90
50989;DHT22;37008;52.210;21.112;2023-03-16T01:04:12;0.20;99.90
50989;DHT22;37008;52.210;21.112;2023-03-16T01:06:38;0.20;99.90
50989;DHT22;37008;52.210;21.112;2023-03-16T01:09:04;0.10;99.90
50989;DHT22;37008;52.210;21.112;2023-03-16T01:11:30;0.10;99.90
50989;DHT22;37008;52.210;21.112;2023-03-16T01:13:58;0.10;99.90
50989;DHT22;37008;52.210;21.112;2023-03-16T01:16:25;0.10;99.90
50989;DHT22;37008;52.210;21.112;2023-03-16T01:18:51;0.10;99.90
50989;DHT22;37008;52.210;21.112;2023-03-16T01:21:21;0.00;99.90
50989;DHT22;37008;52.210;21.112;2023-03-16T01:23:47;0.00;99.90
50989;DHT22;37008;52.210;21.112;2023-03-16T01:26:12;0.00;99.90
50989;DHT22;37008;52.210;21.112;2023-03-16T01:28:42;0.00;99.90
50989;DHT22;37008;52.210;21.112;2023-03-16T01:31:10;0.00;99.90
50989;DHT22;37008;52.210;21.112;2023-03-16T01:33:36;-0.10;99.90
50989;DHT22;37008;52.210;21.112;2023-03-16T01:36:05;-0.10;99.90
50989;DHT22;37008;52.210;21.112;2023-03-16T01:38:31;-0.10;99.90
50989;DHT22;37008;52.210;21.112;2023-03-16T01:40:58;-0.10;99.90
50989;DHT22;37008;52.210;21.112;2023-03-16T01:43:26;-0.10;99.90
50989;DHT22;37008;52.210;21.112;2023-03-16T01:48:52;-0.20;99.90
50989;DHT22;37008;52.210;21.112;2023-03-16T01:53:54;-0.30;99.90
50989;DHT22;37008;52.210;21.112;2023-03-16T01:56:26;-0.30;99.90
50989;DHT22;37008;52.210;21.112;2023-03-16T01:58:55;-0.40;99.90
50989;DHT22;37008;52.210;21.112;2023-03-16T02:01:25;-0.40;99.90
50989;DHT22;37008;52.210;21.112;2023-03-16T02:03:55;-0.40;99.90
50989;DHT22;37008;52.210;21.112;2023-03-16T02:06:22;-0.40;99.90
50989;DHT22;37008;52.210;21.112;2023-03-16T02:08:49;-0.50;99.90
50989;DHT22;37008;52.210;21.112;2023-03-16T02:11:16;-0.50;99.90
50989;DHT22;37008;52.210;21.112;2023-03-16T02:13:47;-0.50;99.90
50989;DHT22;37008;52.210;21.112;2023-03-16T02:16:14;-0.60;99.90
50989;DHT22;37008;52.210;21.112;2023-03-16T02:18:48;-0.80;99.90
50989;DHT22;37008;52.210;21.112;2023-03-16T02:21:18;-0.90;99.90
50989;DHT22;37008;52.210;21.112;2023-03-16T02:23:47;-0.90;99.90
50989;DHT22;37008;52.210;21.112;2023-03-16T02:29:26;-1.10;99.90
50989;DHT22;37008;52.210;21.112;2023-03-16T02:31:55;-1.20;99.90
50989;DHT22;37008;52.210;21.112;2023-03-16T02:34:22;-1.10;99.90
50989;DHT22;37008;52.210;21.112;2023-03-16T02:36:48;-1.10;99.90
50989;DHT22;37008;52.210;21.112;2023-03-16T02:39:17;-1.00;99.90
50989;DHT22;37008;52.210;21.112;2023-03-16T02:41:43;-1.00;99.90
50989;DHT22;37008;52.210;21.112;2023-03-16T02:44:16;-1.00;99.90
50989;DHT22;37008;52.210;21.112;2023-03-16T02:46:43;-1.00;99.90
50989;DHT22;37008;52.210;21.112;2023-03-16T02:49:24;-1.00;99.90
50989;DHT22;37008;52.210;21.112;2023-03-16T02:51:51;-1.00;99.90
50989;DHT22;37008;52.210;21.112;2023-03-16T02:54:17;-1.10;99.90
50989;DHT22;37008;52.210;21.112;2023-03-16T02:56:42;-1.10;99.90
50989;DHT22;37008;52.210;21.112;2023-03-16T02:59:08;-1.10;99.90
50989;DHT22;37008;52.210;21.112;2023-03-16T03:01:34;-1.20;99.90
50989;DHT22;37008;52.210;21.112;2023-03-16T03:04:01;-1.30;99.90
50989;DHT22;37008;52.210;21.112;2023-03-16T03:06:27;-1.30;99.90
50989;DHT22;37008;52.210;21.112;2023-03-16T03:08:53;-1.40;99.90
50989;DHT22;37008;52.210;21.112;2023-03-16T03:11:19;-1.40;99.90
50989;DHT22;37008;52.210;21.112;2023-03-16T03:13:45;-1.40;99.90
50989;DHT22;37008;52.210;21.112;2023-03-16T03:16:12;-1.50;99.90
50989;DHT22;37008;52.210;21.112;2023-03-16T03:18:37;-1.60;99.90
50989;DHT22;37008;52.210;21.112;2023-03-16T03:21:04;-1.70;99.90
50989;DHT22;37008;52.210;21.112;2023-03-16T03:23:30;-1.80;99.90
50989;DHT22;37008;52.210;21.112;2023-03-16T03:25:57;-2.00;99.90
50989;DHT22;37008;52.210;21.112;2023-03-16T03:28:23;-2.00;99.90
50989;DHT22;37008;52.210;21.112;2023-03-16T03:30:48;-2.10;99.90
50989;DHT22;37008;52.210;21.112;2023-03-16T03:33:14;-2.20;99.90
50989;DHT22;37008;52.210;21.112;2023-03-16T03:35:39;-2.30;99.90
50989;DHT22;37008;52.210;21.112;2023-03-16T03:38:06;-2.30;99.90
50989;DHT22;37008;52.210;21.112;2023-03-16T03:40:32;-2.30;99.90
50989;DHT22;37008;52.210;21.112;2023-03-16T03:42:58;-2.40;99.90
50989;DHT22;37008;52.210;21.112;2023-03-16T03:45:23;-2.40;99.90
50989;DHT22;37008;52.210;21.112;2023-03-16T03:47:49;-2.40;99.90
50989;DHT22;37008;52.210;21.112;2023-03-16T03:50:15;-2.40;99.90
50989;DHT22;37008;52.210;21.112;2023-03-16T03:52:41;-2.40;99.90
50989;DHT22;37008;52.210;21.112;2023-03-16T03:55:08;-2.40;99.90
50989;DHT22;37008;52.210;21.112;2023-03-16T03:57:33;-2.40;99.90
50989;DHT22;37008;52.210;21.112;2023-03-16T03:59:59;-2.50;99.90
50989;DHT22;37008;52.210;21.112;2023-03-16T04:02:25;-2.40;99.90
50989;DHT22;37008;52.210;21.112;2023-03-16T04:04:50;-2.40;99.90
50989;DHT22;37008;52.210;21.112;2023-03-16T04:07:16;-2.40;99.90
50989;DHT22;37008;52.210;21.112;2023-03-16T04:09:42;-2.40;99.90
50989;DHT22;37008;52.210;21.112;2023-03-16T04:12:07;-2.30;99.90
50989;DHT22;37008;52.210;21.112;2023-03-16T04:14:33;-2.30;99.90
50989;DHT22;37008;52.210;21.112;2023-03-16T04:16:59;-2.30;99.90
50989;DHT22;37008;52.210;21.112;2023-03-16T04:19:25;-2.30;99.90
50989;DHT22;37008;52.210;21.112;2023-03-16T04:21:50;-2.30;99.90
50989;DHT22;37008;52.210;21.112;2023-03-16T04:24:17;-2.30;99.90
50989;DHT22;37008;52.210;21.112;2023-03-16T04:26:43;-2.40;99.90
50989;DHT22;37008;52.210;21.112;2023-03-16T04:29:13;-2.40;99.90
50989;DHT22;37008;52.210;21.112;2023-03-16T04:31:42;-2.40;99.90
50989;DHT22;37008;52.210;21.112;2023-03-16T04:34:08;-2.40;99.90
50989;DHT22;37008;52.210;21.112;2023-03-16T04:36:36;-2.40;99.90
50989;DHT22;37008;52.210;21.112;2023-03-16T04:39:02;-2.40;99.90
50989;DHT22;37008;52.210;21.112;2023-03-16T04:41:29;-2.40;99.90
50989;DHT22;37008;52.210;21.112;2023-03-16T04:43:54;-2.40;99.90
50989;DHT22;37008;52.210;21.112;2023-03-16T04:46:22;-2.40;99.90
50989;DHT22;37008;52.210;21.112;2023-03-16T04:48:47;-2.40;99.90
50989;DHT22;37008;52.210;21.112;2023-03-16T04:51:13;-2.40;99.90
50989;DHT22;37008;52.210;21.112;2023-03-16T04:53:39;-2.40;99.90
50989;DHT22;37008;52.210;21.112;2023-03-16T04:56:04;-2.40;99.90
50989;DHT22;37008;52.210;21.112;2023-03-16T04:58:31;-2.40;99.90
50989;DHT22;37008;52.210;21.112;2023-03-16T05:00:57;-2.40;99.90
50989;DHT22;37008;52.210;21.112;2023-03-16T05:03:23;-2.40;99.90
50989;DHT22;37008;52.210;21.112;2023-03-16T05:05:49;-2.40;99.90
50989;DHT22;37008;52.210;21.112;2023-03-16T05:08:15;-2.40;99.90
50989;DHT22;37008;52.210;21.112;2023-03-16T05:10:41;-2.40;99.90
50989;DHT22;37008;52.210;21.112;2023-03-16T05:13:07;-2.40;99.90
50989;DHT22;37008;52.210;21.112;2023-03-16T05:15:33;-2.40;99.90
50989;DHT22;37008;52.210;21.112;2023-03-16T05:17:58;-2.30;99.90
50989;DHT22;37008;52.210;21.112;2023-03-16T05:20:24;-2.20;99.90
50989;DHT22;37008;52.210;21.112;2023-03-16T05:22:50;-2.20;99.90
50989;DHT22;37008;52.210;21.112;2023-03-16T05:25:16;-2.10;99.90
50989;DHT22;37008;52.210;21.112;2023-03-16T05:27:48;-2.10;99.90
50989;DHT22;37008;52.210;21.112;2023-03-16T05:30:15;-2.00;99.90
50989;DHT22;37008;52.210;21.112;2023-03-16T05:32:42;-2.00;99.90
50989;DHT22;37008;52.210;21.112;2023-03-16T05:35:08;-1.90;99.90
50989;DHT22;37008;52.210;21.112;2023-03-16T05:37:40;-1.80;99.90
50989;DHT22;37008;52.210;21.112;2023-03-16T05:40:11;-1.80;99.90
50989;DHT22;37008;52.210;21.112;2023-03-16T05:42:44;-1.70;99.90
50989;DHT22;37008;52.210;21.112;2023-03-16T05:45:11;-1.60;99.90
50989;DHT22;37008;52.210;21.112;2023-03-16T05:47:37;-1.50;99.90
50989;DHT22;37008;52.210;21.112;2023-03-16T05:50:05;-1.40;99.90
50989;DHT22;37008;52.210;21.112;2023-03-16T05:52:31;-1.40;99.90
50989;DHT22;37008;52.210;21.112;2023-03-16T05:54:56;-1.30;99.90
50989;DHT22;37008;52.210;21.112;2023-03-16T05:57:22;-1.20;99.90
50989;DHT22;37008;52.210;21.112;2023-03-16T05:59:48;-1.20;99.90
50989;DHT22;37008;52.210;21.112;2023-03-16T06:02:14;-1.10;99.90
50989;DHT22;37008;52.210;21.112;2023-03-16T06:04:40;-1.00;99.90
50989;DHT22;37008;52.210;21.112;2023-03-16T06:07:06;-0.90;99.90
50989;DHT22;37008;52.210;21.112;2023-03-16T06:09:32;-0.90;99.90
50989;DHT22;37008;52.210;21.112;2023-03-16T06:11:57;-0.80;99.90
50989;DHT22;37008;52.210;21.112;2023-03-16T06:14:23;-0.70;99.90
50989;DHT22;37008;52.210;21.112;2023-03-16T06:16:49;-0.60;99.90
50989;DHT22;37008;52.210;21.112;2023-03-16T06:19:15;-0.50;99.90
50989;DHT22;37008;52.210;21.112;2023-03-16T06:21:40;-0.40;99.90
50989;DHT22;37008;52.210;21.112;2023-03-16T06:24:06;-0.30;99.90
50989;DHT22;37008;52.210;21.112;2023-03-16T06:26:34;-0.20;99.90
50989;DHT22;37008;52.210;21.112;2023-03-16T06:28:59;-0.20;99.90
50989;DHT22;37008;52.210;21.112;2023-03-16T06:31:25;-0.10;99.90
50989;DHT22;37008;52.210;21.112;2023-03-16T06:33:51;0.00;99.90
50989;DHT22;37008;52.210;21.112;2023-03-16T06:36:16;0.00;99.90
50989;DHT22;37008;52.210;21.112;2023-03-16T06:38:42;0.30;99.90
50989;DHT22;37008;52.210;21.112;2023-03-16T06:41:07;0.20;99.90
50989;DHT22;37008;52.210;21.112;2023-03-16T06:43:33;0.20;99.90
50989;DHT22;37008;52.210;21.112;2023-03-16T06:45:59;0.30;99.90
50989;DHT22;37008;52.210;21.112;2023-03-16T06:48:25;0.30;99.90
50989;DHT22;37008;52.210;21.112;2023-03-16T06:50:51;0.40;99.90
50989;DHT22;37008;52.210;21.112;2023-03-16T06:53:18;0.50;99.90
50989;DHT22;37008;52.210;21.112;2023-03-16T06:55:43;0.60;99.90
50989;DHT22;37008;52.210;21.112;2023-03-16T06:58:09;0.70;99.90
50989;DHT22;37008;52.210;21.112;2023-03-16T07:00:36;0.90;99.90
50989;DHT22;37008;52.210;21.112;2023-03-16T07:03:02;1.00;99.90
50989;DHT22;37008;52.210;21.112;2023-03-16T07:05:28;1.10;99.90
50989;DHT22;37008;52.210;21.112;2023-03-16T07:07:53;1.20;99.90
50989;DHT22;37008;52.210;21.112;2023-03-16T07:10:20;1.30;99.90
50989;DHT22;37008;52.210;21.112;2023-03-16T07:12:46;1.40;99.90
50989;DHT22;37008;52.210;21.112;2023-03-16T07:15:12;1.50;99.90
50989;DHT22;37008;52.210;21.112;2023-03-16T07:17:37;1.60;99.90
50989;DHT22;37008;52.210;21.112;2023-03-16T07:20:04;1.70;99.90
50989;DHT22;37008;52.210;21.112;2023-03-16T07:22:33;1.80;99.90
50989;DHT22;37008;52.210;21.112;2023-03-16T07:24:58;1.90;99.90
50989;DHT22;37008;52.210;21.112;2023-03-16T07:27:24;1.90;99.90
50989;DHT22;37008;52.210;21.112;2023-03-16T07:29:50;2.00;99.90
50989;DHT22;37008;52.210;21.112;2023-03-16T07:32:17;2.00;99.90
50989;DHT22;37008;52.210;21.112;2023-03-16T07:34:43;2.10;99.90
50989;DHT22;37008;52.210;21.112;2023-03-16T07:37:09;2.20;99.90
50989;DHT22;37008;52.210;21.112;2023-03-16T07:39:35;2.20;99.90
50989;DHT22;37008;52.210;21.112;2023-03-16T07:42:01;2.20;99.90
50989;DHT22;37008;52.210;21.112;2023-03-16T07:44:27;2.20;99.90
50989;DHT22;37008;52.210;21.112;2023-03-16T07:46:52;2.30;99.90
50989;DHT22;37008;52.210;21.112;2023-03-16T07:49:18;2.30;99.90
50989;DHT22;37008;52.210;21.112;2023-03-16T07:51:44;2.40;99.90
50989;DHT22;37008;52.210;21.112;2023-03-16T07:54:09;2.40;99.90
50989;DHT22;37008;52.210;21.112;2023-03-16T07:56:35;2.50;99.90
50989;DHT22;37008;52.210;21.112;2023-03-16T07:59:01;2.50;99.90
50989;DHT22;37008;52.210;21.112;2023-03-16T08:01:27;2.50;99.90
50989;DHT22;37008;52.210;21.112;2023-03-16T08:03:52;2.60;99.90
50989;DHT22;37008;52.210;21.112;2023-03-16T08:06:18;2.70;99.90
50989;DHT22;37008;52.210;21.112;2023-03-16T08:08:44;2.80;99.90
50989;DHT22;37008;52.210;21.112;2023-03-16T08:11:10;2.90;99.90
50989;DHT22;37008;52.210;21.112;2023-03-16T08:13:35;2.90;99.90
50989;DHT22;37008;52.210;21.112;2023-03-16T08:16:01;2.90;99.90
50989;DHT22;37008;52.210;21.112;2023-03-16T08:18:28;3.00;99.90
50989;DHT22;37008;52.210;21.112;2023-03-16T08:20:55;3.10;99.90
50989;DHT22;37008;52.210;21.112;2023-03-16T08:23:21;3.10;99.60
50989;DHT22;37008;52.210;21.112;2023-03-16T08:25:52;3.20;99.10
50989;DHT22;37008;52.210;21.112;2023-03-16T08:28:18;3.20;98.80
50989;DHT22;37008;52.210;21.112;2023-03-16T08:30:50;3.20;97.90
50989;DHT22;37008;52.210;21.112;2023-03-16T08:33:16;3.30;97.60
50989;DHT22;37008;52.210;21.112;2023-03-16T08:35:43;3.40;97.60
50989;DHT22;37008;52.210;21.112;2023-03-16T08:38:12;3.40;97.00
50989;DHT22;37008;52.210;21.112;2023-03-16T08:40:42;3.40;95.90
50989;DHT22;37008;52.210;21.112;2023-03-16T08:43:13;3.50;95.30
50989;DHT22;37008;52.210;21.112;2023-03-16T08:45:39;3.50;94.80
50989;DHT22;37008;52.210;21.112;2023-03-16T08:48:05;3.50;94.50
50989;DHT22;37008;52.210;21.112;2023-03-16T08:50:32;3.50;94.30
50989;DHT22;37008;52.210;21.112;2023-03-16T08:52:58;3.50;94.10
50989;DHT22;37008;52.210;21.112;2023-03-16T08:55:23;3.60;93.70
50989;DHT22;37008;52.210;21.112;2023-03-16T08:57:49;3.60;93.20
50989;DHT22;37008;52.210;21.112;2023-03-16T09:00:15;3.70;92.60
50989;DHT22;37008;52.210;21.112;2023-03-16T09:02:42;3.80;92.50
50989;DHT22;37008;52.210;21.112;2023-03-16T09:05:11;3.90;92.30
50989;DHT22;37008;52.210;21.112;2023-03-16T09:07:37;3.90;92.30
50989;DHT22;37008;52.210;21.112;2023-03-16T09:10:07;4.00;92.10
50989;DHT22;37008;52.210;21.112;2023-03-16T09:12:35;4.10;91.70
50989;DHT22;37008;52.210;21.112;2023-03-16T09:15:01;4.10;90.90
50989;DHT22;37008;52.210;21.112;2023-03-16T09:17:27;4.20;90.40
50989;DHT22;37008;52.210;21.112;2023-03-16T09:19:53;4.10;90.00
50989;DHT22;37008;52.210;21.112;2023-03-16T09:22:20;4.20;88.80
50989;DHT22;37008;52.210;21.112;2023-03-16T09:24:46;4.20;88.00
50989;DHT22;37008;52.210;21.112;2023-03-16T09:27:13;4.30;87.90
50989;DHT22;37008;52.210;21.112;2023-03-16T09:29:40;4.30;87.10
50989;DHT22;37008;52.210;21.112;2023-03-16T09:32:07;4.30;86.20
50989;DHT22;37008;52.210;21.112;2023-03-16T09:34:33;4.30;85.70
50989;DHT22;37008;52.210;21.112;2023-03-16T09:36:59;4.40;85.40
50989;DHT22;37008;52.210;21.112;2023-03-16T09:39:24;4.40;85.10
50989;DHT22;37008;52.210;21.112;2023-03-16T09:41:52;4.50;84.40
50989;DHT22;37008;52.210;21.112;2023-03-16T09:47:04;4.60;82.60
50989;DHT22;37008;52.210;21.112;2023-03-16T09:49:35;4.60;82.30
50989;DHT22;37008;52.210;21.112;2023-03-16T09:57:52;5.00;82.20
50989;DHT22;37008;52.210;21.112;2023-03-16T10:00:25;5.20;81.30
50989;DHT22;37008;52.210;21.112;2023-03-16T10:03:10;5.30;80.30
50989;DHT22;37008;52.210;21.112;2023-03-16T10:05:40;5.40;79.40
50989;DHT22;37008;52.210;21.112;2023-03-16T10:16:37;6.30;75.90
50989;DHT22;37008;52.210;21.112;2023-03-16T10:22:21;6.50;71.20
50989;DHT22;37008;52.210;21.112;2023-03-16T10:27:34;6.40;70.10
50989;DHT22;37008;52.210;21.112;2023-03-16T10:30:03;6.30;69.20
50989;DHT22;37008;52.210;21.112;2023-03-16T10:32:32;6.20;68.80
50989;DHT22;37008;52.210;21.112;2023-03-16T10:37:48;6.30;68.30
50989;DHT22;37008;52.210;21.112;2023-03-16T10:40:14;6.40;68.20
50989;DHT22;37008;52.210;21.112;2023-03-16T10:42:40;6.60;68.30
50989;DHT22;37008;52.210;21.112;2023-03-16T10:45:21;6.70;67.40
50989;DHT22;37008;52.210;21.112;2023-03-16T10:47:47;6.80;66.10
50989;DHT22;37008;52.210;21.112;2023-03-16T10:50:14;6.90;66.00
50989;DHT22;37008;52.210;21.112;2023-03-16T10:52:46;6.90;65.80
50989;DHT22;37008;52.210;21.112;2023-03-16T10:55:30;6.90;65.40
50989;DHT22;37008;52.210;21.112;2023-03-16T10:57:57;7.00;65.10
50989;DHT22;37008;52.210;21.112;2023-03-16T11:00:36;6.90;64.60
50989;DHT22;37008;52.210;21.112;2023-03-16T11:03:18;6.90;64.30
50989;DHT22;37008;52.210;21.112;2023-03-16T11:05:47;6.90;63.90
50989;DHT22;37008;52.210;21.112;2023-03-16T11:08:27;7.00;63.70
50989;DHT22;37008;52.210;21.112;2023-03-16T11:10:59;7.20;63.60
50989;DHT22;37008;52.210;21.112;2023-03-16T11:13:36;7.30;62.10
50989;DHT22;37008;52.210;21.112;2023-03-16T11:18:55;7.10;61.40
50989;DHT22;37008;52.210;21.112;2023-03-16T11:24:15;7.10;62.20
50989;DHT22;37008;52.210;21.112;2023-03-16T11:26:43;7.00;61.10
50989;DHT22;37008;52.210;21.112;2023-03-16T11:29:20;7.10;60.80
50989;DHT22;37008;52.210;21.112;2023-03-16T11:31:52;7.20;60.90
50989;DHT22;37008;52.210;21.112;2023-03-16T11:34:28;7.40;60.70
50989;DHT22;37008;52.210;21.112;2023-03-16T11:37:19;7.60;59.90
50989;DHT22;37008;52.210;21.112;2023-03-16T11:42:58;7.70;58.80
50989;DHT22;37008;52.210;21.112;2023-03-16T11:45:32;7.80;58.30
50989;DHT22;37008;52.210;21.112;2023-03-16T11:50:57;7.90;58.00
50989;DHT22;37008;52.210;21.112;2023-03-16T11:58:41;7.10;58.30
50989;DHT22;37008;52.210;21.112;2023-03-16T12:06:43;6.30;60.70
50989;DHT22;37008;52.210;21.112;2023-03-16T12:12:09;6.20;62.40
50989;DHT22;37008;52.210;21.112;2023-03-16T12:14:51;6.10;63.40
50989;DHT22;37008;52.210;21.112;2023-03-16T12:17:24;6.10;64.40
50989;DHT22;37008;52.210;21.112;2023-03-16T12:19:54;6.10;64.50
50989;DHT22;37008;52.210;21.112;2023-03-16T12:22:34;6.10;64.50
50989;DHT22;37008;52.210;21.112;2023-03-16T12:25:02;6.10;65.10
50989;DHT22;37008;52.210;21.112;2023-03-16T12:27:33;6.00;65.30
50989;DHT22;37008;52.210;21.112;2023-03-16T12:33:15;6.10;65.70
50989;DHT22;37008;52.210;21.112;2023-03-16T12:44:05;6.10;66.10
50989;DHT22;37008;52.210;21.112;2023-03-16T12:49:13;6.10;64.20
50989;DHT22;37008;52.210;21.112;2023-03-16T12:51:41;6.20;63.80
50989;DHT22;37008;52.210;21.112;2023-03-16T12:54:21;6.20;62.80
50989;DHT22;37008;52.210;21.112;2023-03-16T12:56:49;6.20;62.40
50989;DHT22;37008;52.210;21.112;2023-03-16T12:59:20;6.20;62.90
50989;DHT22;37008;52.210;21.112;2023-03-16T13:01:56;6.20;63.10
50989;DHT22;37008;52.210;21.112;2023-03-16T13:04:31;6.20;63.40
50989;DHT22;37008;52.210;21.112;2023-03-16T13:07:07;6.20;64.60
50989;DHT22;37008;52.210;21.112;2023-03-16T13:09:40;6.20;64.30
50989;DHT22;37008;52.210;21.112;2023-03-16T13:12:24;6.20;64.30
50989;DHT22;37008;52.210;21.112;2023-03-16T13:14:50;6.20;63.90
50989;DHT22;37008;52.210;21.112;2023-03-16T13:20:58;6.10;63.20
50989;DHT22;37008;52.210;21.112;2023-03-16T13:28:34;6.10;62.20
50989;DHT22;37008;52.210;21.112;2023-03-16T13:31:00;6.10;62.40
50989;DHT22;37008;52.210;21.112;2023-03-16T13:33:29;6.20;62.60
50989;DHT22;37008;52.210;21.112;2023-03-16T13:35:57;6.30;62.80
50989;DHT22;37008;52.210;21.112;2023-03-16T13:38:26;6.50;63.30
50989;DHT22;37008;52.210;21.112;2023-03-16T13:41:04;6.60;63.40
50989;DHT22;37008;52.210;21.112;2023-03-16T13:43:33;6.70;63.50
50989;DHT22;37008;52.210;21.112;2023-03-16T13:46:19;6.80;63.10
50989;DHT22;37008;52.210;21.112;2023-03-16T13:48:47;6.70;62.80
50989;DHT22;37008;52.210;21.112;2023-03-16T13:51:15;6.70;62.90
50989;DHT22;37008;52.210;21.112;2023-03-16T13:53:42;6.70;63.10
50989;DHT22;37008;52.210;21.112;2023-03-16T13:56:13;6.80;63.20
50989;DHT22;37008;52.210;21.112;2023-03-16T13:58:43;6.90;62.00
50989;DHT22;37008;52.210;21.112;2023-03-16T14:01:27;6.80;60.80
50989;DHT22;37008;52.210;21.112;2023-03-16T14:03:56;6.90;60.00
50989;DHT22;37008;52.210;21.112;2023-03-16T14:06:29;7.10;59.60
50989;DHT22;37008;52.210;21.112;2023-03-16T14:09:01;7.00;58.30
50989;DHT22;37008;52.210;21.112;2023-03-16T14:11:28;7.00;57.80
50989;DHT22;37008;52.210;21.112;2023-03-16T14:13:58;7.00;57.50
50989;DHT22;37008;52.210;21.112;2023-03-16T14:16:26;6.80;56.40
50989;DHT22;37008;52.210;21.112;2023-03-16T14:19:01;6.70;56.80
50989;DHT22;37008;52.210;21.112;2023-03-16T14:21:31;6.70;56.90
50989;DHT22;37008;52.210;21.112;2023-03-16T14:26:24;6.50;57.40
50989;DHT22;37008;52.210;21.112;2023-03-16T14:29:26;6.50;57.50
50989;DHT22;37008;52.210;21.112;2023-03-16T14:31:52;6.40;57.80
50989;DHT22;37008;52.210;21.112;2023-03-16T14:34:38;6.30;57.90
50989;DHT22;37008;52.210;21.112;2023-03-16T14:37:09;6.20;58.40
50989;DHT22;37008;52.210;21.112;2023-03-16T14:39:35;6.20;58.60
50989;DHT22;37008;52.210;21.112;2023-03-16T14:42:25;6.10;58.70
50989;DHT22;37008;52.210;21.112;2023-03-16T14:44:53;6.10;59.30
50989;DHT22;37008;52.210;21.112;2023-03-16T14:47:24;6.10;59.50
50989;DHT22;37008;52.210;21.112;2023-03-16T14:49:50;6.10;59.40
50989;DHT22;37008;52.210;21.112;2023-03-16T14:52:28;6.00;59.30
50989;DHT22;37008;52.210;21.112;2023-03-16T14:54:58;6.00;59.40
50989;DHT22;37008;52.210;21.112;2023-03-16T14:57:24;6.00;59.50
50989;DHT22;37008;52.210;21.112;2023-03-16T14:59:51;6.00;59.40
50989;DHT22;37008;52.210;21.112;2023-03-16T15:02:24;6.00;59.10
50989;DHT22;37008;52.210;21.112;2023-03-16T15:04:51;5.90;58.90
50989;DHT22;37008;52.210;21.112;2023-03-16T15:09:52;5.90;59.10
50989;DHT22;37008;52.210;21.112;2023-03-16T15:12:19;5.90;59.40
50989;DHT22;37008;52.210;21.112;2023-03-16T15:14:46;5.90;60.30
50989;DHT22;37008;52.210;21.112;2023-03-16T15:17:30;5.90;59.70
50989;DHT22;37008;52.210;21.112;2023-03-16T15:19:57;5.90;59.80
50989;DHT22;37008;52.210;21.112;2023-03-16T15:22:36;5.80;60.10
50989;DHT22;37008;52.210;21.112;2023-03-16T15:25:40;5.80;60.60
50989;DHT22;37008;52.210;21.112;2023-03-16T15:28:18;5.80;61.00
50989;DHT22;37008;52.210;21.112;2023-03-16T15:30:49;5.90;61.60
50989;DHT22;37008;52.210;21.112;2023-03-16T15:33:15;6.40;62.00
50989;DHT22;37008;52.210;21.112;2023-03-16T15:35:42;7.30;61.30
50989;DHT22;37008;52.210;21.112;2023-03-16T15:38:23;8.10;59.80
50989;DHT22;37008;52.210;21.112;2023-03-16T15:40:50;8.60;58.60
50989;DHT22;37008;52.210;21.112;2023-03-16T15:43:20;9.10;57.80
50989;DHT22;37008;52.210;21.112;2023-03-16T15:45:47;9.00;56.50
50989;DHT22;37008;52.210;21.112;2023-03-16T15:48:13;8.30;56.40
50989;DHT22;37008;52.210;21.112;2023-03-16T15:50:43;8.00;56.70
50989;DHT22;37008;52.210;21.112;2023-03-16T15:53:14;7.60;56.70
50989;DHT22;37008;52.210;21.112;2023-03-16T15:55:44;7.20;57.20
50989;DHT22;37008;52.210;21.112;2023-03-16T15:58:17;6.90;57.90
50989;DHT22;37008;52.210;21.112;2023-03-16T16:00:45;6.70;58.50
50989;DHT22;37008;52.210;21.112;2023-03-16T16:03:12;6.70;58.80
50989;DHT22;37008;52.210;21.112;2023-03-16T16:05:38;6.80;59.00
50989;DHT22;37008;52.210;21.112;2023-03-16T16:08:07;6.80;58.80
50989;DHT22;37008;52.210;21.112;2023-03-16T16:10:33;7.00;58.50
50989;DHT22;37008;52.210;21.112;2023-03-16T16:12:59;7.00;58.50
50989;DHT22;37008;52.210;21.112;2023-03-16T16:15:26;6.60;58.50
50989;DHT22;37008;52.210;21.112;2023-03-16T16:17:54;6.30;58.90
50989;DHT22;37008;52.210;21.112;2023-03-16T16:20:26;6.20;59.50
50989;DHT22;37008;52.210;21.112;2023-03-16T16:22:54;6.00;59.90
50989;DHT22;37008;52.210;21.112;2023-03-16T16:25:25;5.80;60.40
50989;DHT22;37008;52.210;21.112;2023-03-16T16:27:51;5.50;60.90
50989;DHT22;37008;52.210;21.112;2023-03-16T16:30:23;5.30;62.40
50989;DHT22;37008;52.210;21.112;2023-03-16T16:32:50;5.10;62.80
50989;DHT22;37008;52.210;21.112;2023-03-16T16:35:19;5.00;63.30
50989;DHT22;37008;52.210;21.112;2023-03-16T16:37:46;5.00;64.00
50989;DHT22;37008;52.210;21.112;2023-03-16T16:40:22;4.70;65.40
50989;DHT22;37008;52.210;21.112;2023-03-16T16:42:51;4.60;66.60
50989;DHT22;37008;52.210;21.112;2023-03-16T16:45:23;4.50;67.20
50989;DHT22;37008;52.210;21.112;2023-03-16T16:47:52;4.30;68.30
50989;DHT22;37008;52.210;21.112;2023-03-16T16:50:19;4.20;69.30
50989;DHT22;37008;52.210;21.112;2023-03-16T16:52:46;4.20;70.00
50989;DHT22;37008;52.210;21.112;2023-03-16T16:55:12;4.00;70.50
50989;DHT22;37008;52.210;21.112;2023-03-16T16:57:38;3.90;71.50
50989;DHT22;37008;52.210;21.112;2023-03-16T17:00:05;3.90;71.80